Terminal Aerodrome Forecast
Issued by NWS Nashville, TN

Home | Current Version | Previous Version | Text Only | Print | Product List | Glossary On
Versions: 1 2 3 4 5 6 7 8 9 10 11 12 13 14 15 16 17 18 19 20
000
FTUS44 KOHX 022300
TAFCSV
TAF
KCSV 022327Z 0300/0324 VRB25G35KT 2SM TSRA BR BKN015CB OVC025
     FM030200 00000KT 4SM -TSRA BR BKN015CB OVC025
     FM030400 00000KT 4SM BR VCTS BKN015CB OVC025
      TEMPO 0310/0312 2SM BR SCT009
     FM031300 VRB02KT 4SM BR SCT015
     FM031600 34003KT P6SM BKN250=

USA.gov is the U.S. government's official web portal to all federal, state and local government web resources and services.